sensor_id;sensor_type;location;lat;lon;timestamp;P1;durP1;ratioP1;P2;durP2;ratioP2
22861;SDS011;11598;50.652;6.172;2023-11-21T00:08:14;348.65;;;22.38;;
22861;SDS011;11598;50.652;6.172;2023-11-21T00:18:14;531.70;;;32.47;;
22861;SDS011;11598;50.652;6.172;2023-11-21T00:38:17;724.03;;;40.30;;
22861;SDS011;11598;50.652;6.172;2023-11-21T00:48:20;49.77;;;14.20;;
22861;SDS011;11598;50.652;6.172;2023-11-21T00:58:20;480.33;;;31.65;;
22861;SDS011;11598;50.652;6.172;2023-11-21T01:08:20;607.15;;;32.63;;
22861;SDS011;11598;50.652;6.172;2023-11-21T01:18:21;428.02;;;23.40;;
22861;SDS011;11598;50.652;6.172;2023-11-21T01:28:22;490.77;;;25.80;;
22861;SDS011;11598;50.652;6.172;2023-11-21T01:38:22;443.63;;;24.83;;
22861;SDS011;11598;50.652;6.172;2023-11-21T01:48:23;446.73;;;29.27;;
22861;SDS011;11598;50.652;6.172;2023-11-21T01:58:24;597.45;;;34.60;;
22861;SDS011;11598;50.652;6.172;2023-11-21T02:08:24;462.92;;;30.08;;
22861;SDS011;11598;50.652;6.172;2023-11-21T02:18:25;318.52;;;24.33;;
22861;SDS011;11598;50.652;6.172;2023-11-21T02:28:25;295.17;;;24.93;;
22861;SDS011;11598;50.652;6.172;2023-11-21T02:38:26;252.65;;;22.08;;
22861;SDS011;11598;50.652;6.172;2023-11-21T02:48:26;244.20;;;23.27;;
22861;SDS011;11598;50.652;6.172;2023-11-21T02:58:27;115.22;;;16.08;;
22861;SDS011;11598;50.652;6.172;2023-11-21T03:08:27;202.07;;;19.23;;
22861;SDS011;11598;50.652;6.172;2023-11-21T03:18:27;277.85;;;24.20;;
22861;SDS011;11598;50.652;6.172;2023-11-21T03:28:29;278.83;;;21.63;;
22861;SDS011;11598;50.652;6.172;2023-11-21T03:38:32;384.85;;;20.33;;
22861;SDS011;11598;50.652;6.172;2023-11-21T03:48:33;184.80;;;13.80;;
22861;SDS011;11598;50.652;6.172;2023-11-21T03:58:33;186.45;;;15.43;;
22861;SDS011;11598;50.652;6.172;2023-11-21T04:08:34;152.38;;;14.18;;
22861;SDS011;11598;50.652;6.172;2023-11-21T04:18:37;137.25;;;13.65;;
22861;SDS011;11598;50.652;6.172;2023-11-21T04:28:38;133.82;;;12.35;;
22861;SDS011;11598;50.652;6.172;2023-11-21T04:38:39;158.02;;;14.57;;
22861;SDS011;11598;50.652;6.172;2023-11-21T04:48:39;138.23;;;14.50;;
22861;SDS011;11598;50.652;6.172;2023-11-21T04:58:39;170.52;;;14.85;;
22861;SDS011;11598;50.652;6.172;2023-11-21T05:08:40;108.05;;;12.38;;
22861;SDS011;11598;50.652;6.172;2023-11-21T05:18:40;190.55;;;16.98;;
22861;SDS011;11598;50.652;6.172;2023-11-21T05:28:40;164.07;;;16.08;;
22861;SDS011;11598;50.652;6.172;2023-11-21T05:38:41;95.20;;;12.07;;
22861;SDS011;11598;50.652;6.172;2023-11-21T05:48:41;64.90;;;13.73;;
22861;SDS011;11598;50.652;6.172;2023-11-21T05:58:42;246.10;;;19.33;;
22861;SDS011;11598;50.652;6.172;2023-11-21T06:08:42;263.38;;;21.70;;
22861;SDS011;11598;50.652;6.172;2023-11-21T06:18:43;245.00;;;20.35;;
22861;SDS011;11598;50.652;6.172;2023-11-21T06:28:44;48.38;;;10.73;;
22861;SDS011;11598;50.652;6.172;2023-11-21T06:38:44;129.15;;;14.55;;
22861;SDS011;11598;50.652;6.172;2023-11-21T06:48:45;120.05;;;17.58;;
22861;SDS011;11598;50.652;6.172;2023-11-21T06:58:46;89.82;;;15.25;;
22861;SDS011;11598;50.652;6.172;2023-11-21T07:08:47;313.85;;;25.48;;
22861;SDS011;11598;50.652;6.172;2023-11-21T07:18:48;205.52;;;22.75;;
22861;SDS011;11598;50.652;6.172;2023-11-21T07:28:49;217.25;;;20.55;;
22861;SDS011;11598;50.652;6.172;2023-11-21T07:38:49;306.70;;;27.15;;
22861;SDS011;11598;50.652;6.172;2023-11-21T07:48:50;185.43;;;20.00;;
22861;SDS011;11598;50.652;6.172;2023-11-21T07:58:52;98.70;;;17.33;;
22861;SDS011;11598;50.652;6.172;2023-11-21T08:08:52;190.90;;;19.17;;
22861;SDS011;11598;50.652;6.172;2023-11-21T08:18:53;73.35;;;14.48;;
22861;SDS011;11598;50.652;6.172;2023-11-21T08:28:54;245.38;;;23.80;;
22861;SDS011;11598;50.652;6.172;2023-11-21T08:38:56;65.32;;;14.68;;
22861;SDS011;11598;50.652;6.172;2023-11-21T08:48:56;271.95;;;24.67;;
22861;SDS011;11598;50.652;6.172;2023-11-21T08:58:57;228.63;;;24.33;;
22861;SDS011;11598;50.652;6.172;2023-11-21T09:08:57;132.32;;;17.63;;
22861;SDS011;11598;50.652;6.172;2023-11-21T09:18:58;184.52;;;20.98;;
22861;SDS011;11598;50.652;6.172;2023-11-21T09:28:59;152.38;;;17.15;;
22861;SDS011;11598;50.652;6.172;2023-11-21T09:38:59;177.20;;;19.48;;
22861;SDS011;11598;50.652;6.172;2023-11-21T09:49:02;267.08;;;23.40;;
22861;SDS011;11598;50.652;6.172;2023-11-21T09:59:05;84.85;;;18.15;;
22861;SDS011;11598;50.652;6.172;2023-11-21T10:09:10;120.80;;;18.25;;
22861;SDS011;11598;50.652;6.172;2023-11-21T10:19:11;191.82;;;22.90;;
22861;SDS011;11598;50.652;6.172;2023-11-21T10:29:15;130.90;;;21.10;;
22861;SDS011;11598;50.652;6.172;2023-11-21T10:39:17;149.05;;;28.13;;
22861;SDS011;11598;50.652;6.172;2023-11-21T10:49:19;226.30;;;27.00;;
22861;SDS011;11598;50.652;6.172;2023-11-21T10:59:20;84.30;;;17.77;;
22861;SDS011;11598;50.652;6.172;2023-11-21T11:09:25;210.20;;;25.85;;
22861;SDS011;11598;50.652;6.172;2023-11-21T11:19:26;67.88;;;17.73;;
22861;SDS011;11598;50.652;6.172;2023-11-21T11:29:48;187.60;;;24.63;;
22861;SDS011;11598;50.652;6.172;2023-11-21T11:40:14;134.82;;;19.23;;
22861;SDS011;11598;50.652;6.172;2023-11-21T11:50:15;109.80;;;17.25;;
22861;SDS011;11598;50.652;6.172;2023-11-21T12:10:27;166.35;;;22.25;;
22861;SDS011;11598;50.652;6.172;2023-11-21T12:20:29;179.93;;;24.40;;
22861;SDS011;11598;50.652;6.172;2023-11-21T12:30:32;119.65;;;21.58;;
22861;SDS011;11598;50.652;6.172;2023-11-21T12:40:37;159.52;;;23.85;;
22861;SDS011;11598;50.652;6.172;2023-11-21T12:50:38;131.10;;;23.75;;
22861;SDS011;11598;50.652;6.172;2023-11-21T13:00:40;83.63;;;16.57;;
22861;SDS011;11598;50.652;6.172;2023-11-21T13:10:45;90.30;;;16.92;;
22861;SDS011;11598;50.652;6.172;2023-11-21T13:20:49;60.03;;;11.75;;
22861;SDS011;11598;50.652;6.172;2023-11-21T13:30:50;98.47;;;11.77;;
22861;SDS011;11598;50.652;6.172;2023-11-21T13:40:53;87.00;;;11.35;;
22861;SDS011;11598;50.652;6.172;2023-11-21T13:50:54;46.17;;;10.15;;
22861;SDS011;11598;50.652;6.172;2023-11-21T14:01:10;128.10;;;14.18;;
22861;SDS011;11598;50.652;6.172;2023-11-21T14:11:29;129.57;;;16.63;;
22861;SDS011;11598;50.652;6.172;2023-11-21T14:21:30;139.40;;;15.80;;
22861;SDS011;11598;50.652;6.172;2023-11-21T14:31:30;121.18;;;15.02;;
22861;SDS011;11598;50.652;6.172;2023-11-21T14:41:31;132.15;;;14.98;;
22861;SDS011;11598;50.652;6.172;2023-11-21T14:51:31;43.65;;;11.18;;
22861;SDS011;11598;50.652;6.172;2023-11-21T15:01:32;129.43;;;15.20;;
22861;SDS011;11598;50.652;6.172;2023-11-21T15:11:53;67.75;;;15.88;;
22861;SDS011;11598;50.652;6.172;2023-11-21T15:21:58;44.88;;;13.52;;
22861;SDS011;11598;50.652;6.172;2023-11-21T15:31:59;170.73;;;20.55;;
22861;SDS011;11598;50.652;6.172;2023-11-21T15:42:00;164.95;;;19.70;;
22861;SDS011;11598;50.652;6.172;2023-11-21T15:52:01;40.55;;;11.63;;
22861;SDS011;11598;50.652;6.172;2023-11-21T16:02:02;37.03;;;10.23;;
22861;SDS011;11598;50.652;6.172;2023-11-21T16:12:05;57.13;;;14.70;;
22861;SDS011;11598;50.652;6.172;2023-11-21T16:22:06;103.75;;;19.52;;
22861;SDS011;11598;50.652;6.172;2023-11-21T16:32:06;417.27;;;26.95;;
22861;SDS011;11598;50.652;6.172;2023-11-21T16:42:07;474.92;;;26.20;;
22861;SDS011;11598;50.652;6.172;2023-11-21T16:52:07;458.70;;;30.80;;
22861;SDS011;11598;50.652;6.172;2023-11-21T17:02:07;232.70;;;23.23;;
22861;SDS011;11598;50.652;6.172;2023-11-21T17:12:11;167.27;;;21.55;;
22861;SDS011;11598;50.652;6.172;2023-11-21T17:22:11;415.10;;;27.30;;
22861;SDS011;11598;50.652;6.172;2023-11-21T17:32:11;821.55;;;40.78;;
22861;SDS011;11598;50.652;6.172;2023-11-21T17:42:12;50.88;;;15.55;;
22861;SDS011;11598;50.652;6.172;2023-11-21T17:52:13;53.83;;;17.35;;
22861;SDS011;11598;50.652;6.172;2023-11-21T18:02:13;90.43;;;24.33;;
22861;SDS011;11598;50.652;6.172;2023-11-21T18:12:14;135.70;;;36.92;;
22861;SDS011;11598;50.652;6.172;2023-11-21T18:22:14;190.27;;;42.35;;
22861;SDS011;11598;50.652;6.172;2023-11-21T18:32:15;249.90;;;47.42;;
22861;SDS011;11598;50.652;6.172;2023-11-21T18:42:15;593.47;;;54.20;;
22861;SDS011;11598;50.652;6.172;2023-11-21T18:52:16;390.65;;;68.93;;
22861;SDS011;11598;50.652;6.172;2023-11-21T19:02:16;183.35;;;52.92;;
22861;SDS011;11598;50.652;6.172;2023-11-21T19:12:17;119.85;;;39.17;;
22861;SDS011;11598;50.652;6.172;2023-11-21T19:22:18;942.05;;;72.78;;
22861;SDS011;11598;50.652;6.172;2023-11-21T19:32:19;1126.60;;;67.28;;
22861;SDS011;11598;50.652;6.172;2023-11-21T19:42:19;921.90;;;60.80;;
22861;SDS011;11598;50.652;6.172;2023-11-21T19:52:20;791.58;;;62.58;;
22861;SDS011;11598;50.652;6.172;2023-11-21T20:02:21;1138.68;;;70.88;;
22861;SDS011;11598;50.652;6.172;2023-11-21T20:12:22;592.50;;;43.13;;
22861;SDS011;11598;50.652;6.172;2023-11-21T20:22:22;113.20;;;25.15;;
22861;SDS011;11598;50.652;6.172;2023-11-21T20:32:22;95.70;;;27.20;;
22861;SDS011;11598;50.652;6.172;2023-11-21T20:42:24;110.20;;;29.10;;
22861;SDS011;11598;50.652;6.172;2023-11-21T20:52:25;97.53;;;28.98;;
22861;SDS011;11598;50.652;6.172;2023-11-21T21:02:25;105.65;;;26.50;;
22861;SDS011;11598;50.652;6.172;2023-11-21T21:12:26;128.75;;;29.45;;
22861;SDS011;11598;50.652;6.172;2023-11-21T21:22:26;75.30;;;25.77;;
22861;SDS011;11598;50.652;6.172;2023-11-21T21:32:27;57.73;;;20.73;;
22861;SDS011;11598;50.652;6.172;2023-11-21T21:42:27;40.72;;;18.38;;
22861;SDS011;11598;50.652;6.172;2023-11-21T21:52:35;45.08;;;18.65;;
22861;SDS011;11598;50.652;6.172;2023-11-21T22:02:35;47.88;;;19.85;;
22861;SDS011;11598;50.652;6.172;2023-11-21T22:12:36;46.70;;;19.95;;
22861;SDS011;11598;50.652;6.172;2023-11-21T22:22:36;48.75;;;20.73;;
22861;SDS011;11598;50.652;6.172;2023-11-21T22:32:37;38.70;;;18.73;;
22861;SDS011;11598;50.652;6.172;2023-11-21T22:42:37;44.80;;;19.92;;
22861;SDS011;11598;50.652;6.172;2023-11-21T22:52:38;36.85;;;17.23;;
22861;SDS011;11598;50.652;6.172;2023-11-21T23:02:38;35.00;;;15.65;;
22861;SDS011;11598;50.652;6.172;2023-11-21T23:12:39;37.40;;;16.30;;
22861;SDS011;11598;50.652;6.172;2023-11-21T23:22:39;45.53;;;18.35;;
22861;SDS011;11598;50.652;6.172;2023-11-21T23:32:40;59.30;;;21.88;;
22861;SDS011;11598;50.652;6.172;2023-11-21T23:42:41;67.88;;;22.52;;
22861;SDS011;11598;50.652;6.172;2023-11-21T23:52:41;60.65;;;23.27;;
